Time;durP1;ratioP1;P1;durP2;ratioP2;P2;SDS_P1;SDS_P2;PMS_P1;PMS_P2;Temp;Humidity;BMP_temperature;BMP_pressure;BME280_temperature;BME280_humidity;BME280_pressure;Samples;Min_cycle;Max_cycle;Signal;HPM_P1;HPM_P2
2022/10/23 09:55:26;;;;;;;;;6.00;6.00;;;;;22.10;52.64;100080.63;5080194;28;45350;-58
2022/10/23 09:57:54;;;;;;;;;5.75;5.75;;;;;22.12;52.71;100089.25;5073390;28;45559;-53
2022/10/23 10:00:24;;;;;;;;;8.00;7.00;;;;;22.13;52.54;100084.84;5066677;28;45462;-55
2022/10/23 10:02:59;;;;;;;;;5.25;4.00;;;;;22.15;52.45;100083.75;5065536;28;45407;-56
2022/10/23 10:05:34;;;;;;;;;6.50;5.25;;;;;22.15;52.63;100075.84;5059498;28;45785;-56
2022/10/23 10:08:24;;;;;;;;;8.50;6.25;;;;;22.15;52.41;100073.19;5062784;28;45414;-59
2022/10/23 10:10:55;;;;;;;;;6.00;6.00;;;;;22.18;52.47;100070.34;5061352;28;45283;-60
2022/10/23 10:13:26;;;;;;;;;7.00;5.50;;;;;22.19;52.12;100073.81;5058081;28;45477;-59
2022/10/23 10:15:59;;;;;;;;;6.75;5.00;;;;;22.19;52.15;100063.25;5057513;28;45409;-52
2022/10/23 10:18:40;;;;;;;;;9.00;6.00;;;;;22.19;52.54;100074.66;5057404;28;45393;-57
2022/10/23 10:21:25;;;;;;;;;6.50;5.75;;;;;22.21;52.16;100072.72;5057352;28;45367;-60
2022/10/23 10:24:03;;;;;;;;;3.75;2.75;;;;;22.23;52.18;100077.91;5057234;28;46437;-54
2022/10/23 10:26:43;;;;;;;;;5.00;5.00;;;;;22.22;52.36;100074.41;5062956;28;45455;-54
2022/10/23 10:29:24;;;;;;;;;8.00;5.00;;;;;22.23;52.23;100081.38;5061969;28;45509;-54
2022/10/23 10:32:04;;;;;;;;;5.25;5.25;;;;;22.23;52.15;100065.53;5061845;28;45388;-53
2022/10/23 10:34:38;;;;;;;;;7.00;5.00;;;;;22.23;52.00;100073.47;5068598;28;47245;-54
2022/10/23 10:37:09;;;;;;;;;6.25;6.00;;;;;22.24;52.35;100064.59;5065575;28;45777;-52
2022/10/23 10:39:46;;;;;;;;;5.00;4.00;;;;;22.24;51.86;100067.22;5061406;28;45369;-51
2022/10/23 10:42:27;;;;;;;;;6.00;6.00;;;;;22.23;51.98;100065.53;5068403;28;45541;-54
2022/10/23 10:45:00;;;;;;;;;7.50;5.00;;;;;22.24;52.02;100066.41;5069019;28;45472;-52
2022/10/23 10:47:51;;;;;;;;;8.25;6.25;;;;;22.26;52.22;100064.50;5068324;28;45392;-53
2022/10/23 10:50:40;;;;;;;;;5.25;5.00;;;;;22.28;52.06;100067.00;5058190;28;45291;-53
2022/10/23 10:53:32;;;;;;;;;7.00;5.50;;;;;22.28;52.18;100040.63;5057219;28;45252;-54
2022/10/23 10:56:03;;;;;;;;;6.50;6.50;;;;;22.29;51.99;100042.31;5056153;28;45717;-53
2022/10/23 10:58:39;;;;;;;;;5.00;5.00;;;;;22.30;51.56;100043.97;5056435;28;45792;-55
2022/10/23 11:01:25;;;;;;;;;5.25;5.25;;;;;22.30;51.83;100057.19;5056581;28;45445;-55
2022/10/23 11:04:02;;;;;;;;;5.75;5.25;;;;;22.30;52.06;100047.44;5075658;28;45371;-55
2022/10/23 11:06:32;;;;;;;;;4.75;4.75;;;;;22.31;51.35;100046.50;5061550;28;48083;-53
2022/10/23 11:09:03;;;;;;;;;6.00;6.00;;;;;22.32;51.74;100042.91;5056592;28;45946;-52
2022/10/23 11:11:33;;;;;;;;;7.50;5.50;;;;;22.34;51.59;100034.84;5056657;28;45270;-54
2022/10/23 11:13:59;;;;;;;;;7.00;5.50;;;;;22.34;51.67;100029.56;5072464;28;45417;-54
2022/10/23 11:16:33;;;;;;;;;4.00;4.00;;;;;22.34;51.83;100035.72;5058187;28;45467;-48
2022/10/23 11:19:20;;;;;;;;;5.00;5.00;;;;;22.36;51.43;100027.66;5056336;28;45367;-53
2022/10/23 11:22:00;;;;;;;;;7.25;5.00;;;;;22.37;51.64;100018.78;5061006;28;45427;-53
2022/10/23 11:24:57;;;;;;;;;7.25;6.00;;;;;22.37;51.34;100008.22;5058321;28;45426;-53
2022/10/23 11:27:50;;;;;;;;;4.00;4.00;;;;;22.37;51.15;99992.38;5057438;28;46613;-54
2022/10/23 11:30:15;;;;;;;;;4.75;4.75;;;;;22.38;51.42;100002.81;5056810;28;45304;-54
2022/10/23 11:32:59;;;;;;;;;6.00;5.00;;;;;22.37;51.14;99987.97;5059801;28;45374;-56
2022/10/23 11:35:40;;;;;;;;;6.00;6.00;;;;;22.38;51.44;99996.72;5058966;28;45436;-54
2022/10/23 11:38:11;;;;;;;;;6.00;4.25;;;;;22.39;51.09;100001.03;5057172;28;47339;-55
2022/10/23 11:40:47;;;;;;;;;4.50;4.00;;;;;22.39;51.32;100006.31;5056255;28;45838;-54
2022/10/23 11:43:24;;;;;;;;;7.00;5.00;;;;;22.41;51.39;100001.81;5056706;28;45409;-55
2022/10/23 11:45:49;;;;;;;;;5.25;3.50;;;;;22.40;51.35;99997.44;5058528;28;45347;-54
2022/10/23 11:48:20;;;;;;;;;4.75;4.75;;;;;22.43;51.17;99999.03;5067928;28;46466;-54
2022/10/23 11:50:46;;;;;;;;;5.00;4.00;;;;;22.41;51.25;99993.03;5059393;28;45772;-53
2022/10/23 11:53:31;;;;;;;;;6.00;5.00;;;;;22.42;51.11;99973.59;5058093;28;45452;-55
2022/10/23 11:56:10;;;;;;;;;4.25;4.25;;;;;22.42;51.54;99979.72;5064560;28;45366;-53
2022/10/23 11:58:56;;;;;;;;;5.50;4.00;;;;;22.43;51.19;99980.56;5080299;28;45455;-48
2022/10/23 12:01:44;;;;;;;;;6.50;5.75;;;;;22.44;51.40;99975.13;5081911;28;45306;-54
2022/10/23 12:04:12;;;;;;;;;7.00;6.00;;;;;22.44;51.25;99964.59;5065247;28;45362;-55
2022/10/23 12:06:45;;;;;;;;;4.00;4.00;;;;;22.45;51.18;99974.19;5061496;28;45515;-55
2022/10/23 12:09:44;;;;;;;;;6.00;6.00;;;;;22.46;51.28;99969.75;5058473;28;47394;-54
2022/10/23 12:12:10;;;;;;;;;4.50;4.50;;;;;22.46;50.97;99965.31;5059466;28;45794;-55
2022/10/23 12:14:40;;;;;;;;;5.00;5.00;;;;;22.47;51.21;99955.59;5060522;28;45401;-54
2022/10/23 12:17:27;;;;;;;;;3.50;3.25;;;;;22.46;51.28;99944.19;5070693;28;45240;-55
2022/10/23 12:20:00;;;;;;;;;4.00;4.00;;;;;22.45;50.91;99937.22;5061609;28;46783;-53
2022/10/23 12:22:38;;;;;;;;;6.25;4.25;;;;;22.46;50.95;99925.69;5059118;28;45755;-53
2022/10/23 12:25:23;;;;;;;;;4.50;4.50;;;;;22.46;51.25;99925.69;5058986;28;45437;-52
2022/10/23 12:28:02;;;;;;;;;6.00;4.75;;;;;22.48;51.03;99930.88;5073463;28;45322;-55
2022/10/23 12:30:35;;;;;;;;;5.00;5.00;;;;;22.48;51.09;99929.06;5067869;28;46617;-55
2022/10/23 12:33:20;;;;;;;;;5.00;4.00;;;;;22.48;51.13;99937.00;5073221;28;45357;-52
2022/10/23 12:35:54;;;;;;;;;7.00;5.00;;;;;22.47;50.95;99935.31;5060321;28;45287;-54
2022/10/23 12:38:22;;;;;;;;;9.00;4.50;;;;;22.48;51.29;99920.31;5058922;28;45440;-55
2022/10/23 12:40:52;;;;;;;;;5.00;4.00;;;;;22.48;50.79;99915.88;5058196;28;45361;-54
2022/10/23 12:43:26;;;;;;;;;3.25;3.25;;;;;22.49;51.01;99909.63;5058595;28;45440;-52
2022/10/23 12:45:54;;;;;;;;;5.00;4.75;;;;;22.49;51.10;99907.00;5058197;28;45469;-53
2022/10/23 12:48:21;;;;;;;;;4.00;4.00;;;;;22.50;51.07;99902.53;5058685;28;45428;-53
2022/10/23 12:50:49;;;;;;;;;4.00;4.00;;;;;22.51;51.06;99889.22;5058130;28;45576;-56
2022/10/23 12:53:17;;;;;;;;;3.25;3.25;;;;;22.51;50.85;99883.09;5058767;28;45801;-54
2022/10/23 12:55:56;;;;;;;;;5.75;3.75;;;;;22.52;51.05;99879.50;5060770;28;45361;-55
2022/10/23 12:58:34;;;;;;;;;4.00;4.00;;;;;22.53;51.00;99860.06;5066828;28;45256;-54
2022/10/23 13:01:02;;;;;;;;;4.50;4.00;;;;;22.51;50.85;99865.47;5067640;28;45390;-53
2022/10/23 13:03:30;;;;;;;;;4.00;4.00;;;;;22.52;50.75;99864.50;5060683;28;45770;-52
2022/10/23 13:05:58;;;;;;;;;5.00;4.00;;;;;22.53;50.66;99860.06;5058419;28;45416;-52
2022/10/23 13:08:32;;;;;;;;;4.00;3.50;;;;;22.53;50.77;99844.22;5056100;28;45234;-55
2022/10/23 13:10:58;;;;;;;;;4.00;4.00;;;;;22.52;50.87;99846.03;5059011;28;45477;-54
2022/10/23 13:13:24;;;;;;;;;4.50;4.50;;;;;22.54;50.74;99843.25;5057884;28;45378;-57
2022/10/23 13:15:49;;;;;;;;;5.25;3.75;;;;;22.54;50.60;99846.72;5072505;28;45461;-56
2022/10/23 13:18:16;;;;;;;;;1.00;0.00;;;;;22.53;50.53;99837.13;5078465;28;45326;-50
2022/10/23 13:20:50;;;;;;;;;5.00;4.25;;;;;22.53;50.46;99829.22;5077494;28;46592;-52
2022/10/23 13:23:25;;;;;;;;;7.50;3.25;;;;;22.55;50.51;99832.56;5079169;28;45295;-53
2022/10/23 13:25:55;;;;;;;;;4.50;3.75;;;;;22.53;50.47;99810.72;5085302;28;45310;-55
2022/10/23 13:28:25;;;;;;;;;4.00;2.75;;;;;22.53;50.61;99802.81;5079844;28;45322;-55
2022/10/23 13:31:11;;;;;;;;;4.25;4.25;;;;;22.53;50.56;99808.09;5077203;28;46199;-55
2022/10/23 13:33:42;;;;;;;;;4.75;3.75;;;;;22.54;50.32;99809.75;5077370;28;45383;-54
2022/10/23 13:36:13;;;;;;;;;4.00;3.00;;;;;22.54;50.41;99801.81;5075753;28;45368;-53
2022/10/23 13:38:41;;;;;;;;;4.00;3.25;;;;;22.54;50.31;99799.19;5077640;28;45599;-55
2022/10/23 13:41:16;;;;;;;;;4.50;3.00;;;;;22.54;50.13;99785.97;5076735;28;48371;-53
2022/10/23 13:43:43;;;;;;;;;4.00;3.00;;;;;22.54;50.41;99783.34;5077233;27;45962;-53
2022/10/23 13:46:16;;;;;;;;;8.00;3.50;;;;;22.55;50.02;99785.03;5075994;28;45353;-55
2022/10/23 13:48:42;;;;;;;;;3.00;3.00;;;;;22.53;50.18;99792.25;5077726;28;45616;-53
2022/10/23 13:51:18;;;;;;;;;1.00;1.00;;;;;22.57;49.97;99794.63;5082422;28;45996;-53
2022/10/23 13:53:43;;;;;;;;;4.25;3.50;;;;;22.59;50.04;99790.06;5095918;27;45187;-52
2022/10/23 13:56:11;;;;;;;;;4.00;3.50;;;;;22.59;50.00;99780.34;5080528;28;45443;-54
2022/10/23 13:58:37;;;;;;;;;4.25;4.00;;;;;22.59;50.26;99780.34;5077579;28;45630;-57
2022/10/23 14:01:03;;;;;;;;;4.00;4.00;;;;;22.60;50.34;99775.91;5077532;28;46236;-46
2022/10/23 14:03:28;;;;;;;;;4.00;2.00;;;;;22.62;50.32;99772.16;5077018;28;45492;-53
2022/10/23 14:05:53;;;;;;;;;5.00;3.00;;;;;22.61;50.04;99751.16;5078368;28;45568;-53
2022/10/23 14:08:19;;;;;;;;;5.25;2.75;;;;;22.62;50.14;99768.69;5081926;28;45420;-55
2022/10/23 14:10:45;;;;;;;;;4.75;4.00;;;;;22.61;50.20;99774.94;5061269;28;45476;-52
2022/10/23 14:13:10;;;;;;;;;3.25;3.25;;;;;22.62;50.38;99769.53;5055904;28;45505;-52
2022/10/23 14:15:35;;;;;;;;;3.00;3.00;;;;;22.62;50.03;99768.69;5057766;28;45334;-53
2022/10/23 14:18:01;;;;;;;;;5.50;3.50;;;;;22.62;50.22;99755.50;5057994;28;45470;-52
2022/10/23 14:20:27;;;;;;;;;2.00;2.00;;;;;22.61;50.34;99743.25;5060435;28;46058;-50
2022/10/23 14:22:52;;;;;;;;;6.75;3.50;;;;;22.62;50.31;99743.09;5063945;28;45246;-47
2022/10/23 14:25:17;;;;;;;;;5.50;3.00;;;;;22.63;50.25;99739.50;5058123;28;45330;-55
2022/10/23 14:27:43;;;;;;;;;3.50;2.75;;;;;22.63;49.99;99728.13;5056891;28;45641;-54
2022/10/23 14:30:09;;;;;;;;;4.75;3.25;;;;;22.63;50.38;99722.84;5059012;28;46301;-52
2022/10/23 14:32:34;;;;;;;;;4.00;3.00;;;;;22.63;50.29;99725.47;5061833;28;45335;-46
2022/10/23 14:35:02;;;;;;;;;4.75;3.25;;;;;22.64;50.39;99735.09;5061007;28;45206;-55
2022/10/23 14:37:31;;;;;;;;;3.50;2.25;;;;;22.64;50.20;99753.56;5060591;28;45369;-49
2022/10/23 14:39:57;;;;;;;;;4.25;4.25;;;;;22.64;50.48;99756.22;5062482;28;46232;-52
2022/10/23 14:42:22;;;;;;;;;5.75;3.25;;;;;22.64;50.31;99764.13;5063901;28;45303;-52
2022/10/23 14:44:48;;;;;;;;;5.00;3.50;;;;;22.64;50.48;99761.50;5063847;28;45306;-51
2022/10/23 14:47:20;;;;;;;;;5.00;3.00;;;;;22.63;50.44;99747.44;5062195;28;45594;-54
2022/10/23 14:49:50;;;;;;;;;4.75;4.00;;;;;22.63;50.20;99746.59;5063649;28;45356;-55
2022/10/23 14:52:16;;;;;;;;;5.75;4.00;;;;;22.64;50.83;99756.22;5066584;28;45221;-54
2022/10/23 14:54:42;;;;;;;;;4.00;4.00;;;;;22.64;50.50;99761.50;5066477;28;45660;-55
2022/10/23 14:57:07;;;;;;;;;4.00;4.00;;;;;22.64;50.37;99766.78;5071899;28;45554;-52
2022/10/23 14:59:32;;;;;;;;;5.75;3.00;;;;;22.66;50.38;99754.25;5069614;28;45431;-52
2022/10/23 15:01:58;;;;;;;;;4.75;3.75;;;;;22.66;50.37;99739.25;5068091;28;45290;-58
2022/10/23 15:04:23;;;;;;;;;2.25;1.00;;;;;22.67;50.56;99740.09;5067153;28;45422;-52
2022/10/23 15:06:49;;;;;;;;;4.00;4.00;;;;;22.68;50.56;99736.50;5069511;28;45287;-56
2022/10/23 15:09:15;;;;;;;;;5.00;4.00;;;;;22.68;50.43;99745.25;5068665;28;46562;-56
2022/10/23 15:11:40;;;;;;;;;4.00;3.00;;;;;22.69;50.60;99730.25;5066498;28;45243;-55
2022/10/23 15:14:05;;;;;;;;;3.50;2.50;;;;;22.71;50.93;99725.69;5067036;28;45652;-57
2022/10/23 15:16:31;;;;;;;;;5.00;4.50;;;;;22.70;50.56;99724.00;5065659;28;45574;-53
2022/10/23 15:18:57;;;;;;;;;3.00;3.00;;;;;22.70;50.47;99742.50;5061680;28;45418;-53
2022/10/23 15:21:22;;;;;;;;;4.75;4.00;;;;;22.70;50.36;99743.34;5057606;28;45433;-55
2022/10/23 15:23:49;;;;;;;;;6.25;4.25;;;;;22.72;50.53;99748.50;5058473;28;45240;-55
2022/10/23 15:26:20;;;;;;;;;4.00;3.00;;;;;22.70;50.25;99732.78;5057755;28;45188;-53
2022/10/23 15:28:46;;;;;;;;;0.25;0.25;;;;;22.72;50.67;99735.28;5056727;28;46504;-49
2022/10/23 15:31:36;;;;;;;;;3.00;3.00;;;;;22.72;50.28;99735.28;5056491;28;45440;-54
2022/10/23 15:34:03;;;;;;;;;6.75;4.00;;;;;22.73;50.38;99734.31;5057533;28;45315;-56
2022/10/23 15:36:28;;;;;;;;;4.00;4.00;;;;;22.73;50.37;99731.69;5057630;28;45616;-50
2022/10/23 15:38:53;;;;;;;;;4.25;3.25;;;;;22.72;50.26;99737.06;5056776;28;45409;-47
2022/10/23 15:41:31;;;;;;;;;4.25;3.00;;;;;22.71;50.57;99752.09;5055518;28;61349;-55
2022/10/23 15:44:01;;;;;;;;;5.75;3.00;;;;;22.73;50.58;99747.53;5056984;28;45444;-54
2022/10/23 15:46:27;;;;;;;;;5.00;3.75;;;;;22.74;50.37;99753.63;5062888;28;45627;-58
2022/10/23 15:48:52;;;;;;;;;6.00;4.00;;;;;22.74;50.31;99756.28;5058024;28;46643;-58
2022/10/23 15:51:18;;;;;;;;;7.25;3.00;;;;;22.74;50.51;99766.84;5056863;28;45420;-56
2022/10/23 15:53:43;;;;;;;;;6.25;4.00;;;;;22.75;50.81;99768.53;5056444;28;45327;-58
2022/10/23 15:56:08;;;;;;;;;3.75;3.00;;;;;22.75;50.48;99768.53;5057008;28;45500;-56
2022/10/23 15:58:34;;;;;;;;;6.50;5.00;;;;;22.76;50.26;99767.56;5056180;28;46159;-46
2022/10/23 16:01:07;;;;;;;;;3.00;3.00;;;;;22.76;50.51;99773.69;5054925;28;45741;-54
2022/10/23 16:03:33;;;;;;;;;2.00;2.00;;;;;22.75;50.83;99777.31;5075146;28;45433;-56
2022/10/23 16:06:03;;;;;;;;;4.00;4.00;;;;;22.75;50.65;99790.50;5057151;28;45733;-54
2022/10/23 16:08:28;;;;;;;;;4.00;4.00;;;;;22.74;50.67;99788.84;5056042;28;46168;-56
2022/10/23 16:10:54;;;;;;;;;3.50;2.25;;;;;22.74;50.52;99783.53;5055784;28;45181;-53
2022/10/23 16:13:19;;;;;;;;;3.00;3.00;;;;;22.74;50.47;99793.25;5059853;28;45458;-53
2022/10/23 16:15:45;;;;;;;;;3.75;2.75;;;;;22.72;50.29;99798.69;5061313;28;45588;-57
2022/10/23 16:18:11;;;;;;;;;3.75;3.25;;;;;22.72;50.28;99793.41;5052480;28;46389;-55
2022/10/23 16:20:39;;;;;;;;;5.25;3.50;;;;;22.71;50.65;99799.63;5054771;28;45326;-56
2022/10/23 16:23:04;;;;;;;;;4.00;3.00;;;;;22.70;50.57;99806.72;5053357;28;45391;-55
2022/10/23 16:25:29;;;;;;;;;4.75;3.00;;;;;22.70;50.36;99813.81;5055501;28;45390;-56
2022/10/23 16:27:57;;;;;;;;;3.00;2.00;;;;;22.69;50.43;99805.06;5057531;28;58010;-54
2022/10/23 16:30:23;;;;;;;;;2.75;2.75;;;;;22.69;50.43;99794.50;5085791;28;45448;-57
2022/10/23 16:32:49;;;;;;;;;3.00;2.00;;;;;22.69;49.70;99807.69;5081394;28;45889;-54
2022/10/23 16:35:15;;;;;;;;;7.00;2.25;;;;;22.69;49.87;99806.84;5084854;28;45239;-55
2022/10/23 16:37:40;;;;;;;;;2.75;2.75;;;;;22.68;49.72;99818.38;5075835;28;45328;-56
2022/10/23 16:40:06;;;;;;;;;1.50;1.50;;;;;22.65;49.55;99816.81;5075572;28;45334;-56
2022/10/23 16:42:32;;;;;;;;;2.00;2.00;;;;;22.66;49.14;99823.78;5083678;28;45317;-56
2022/10/23 16:44:57;;;;;;;;;4.00;2.00;;;;;22.65;49.14;99823.91;5087783;28;45291;-56
2022/10/23 16:47:22;;;;;;;;;2.25;1.00;;;;;22.65;48.85;99821.28;5092880;28;45424;-56
2022/10/23 16:49:48;;;;;;;;;0.25;0.25;;;;;22.63;48.79;99823.19;5086868;28;45314;-55
2022/10/23 16:52:13;;;;;;;;;1.25;1.25;;;;;22.64;49.00;99832.78;5079512;28;45393;-58
2022/10/23 16:54:38;;;;;;;;;4.00;2.00;;;;;22.64;49.05;99848.66;5080270;28;52530;-57
2022/10/23 16:57:04;;;;;;;;;2.75;1.25;;;;;22.63;48.94;99845.16;5079258;28;47496;-54
2022/10/23 16:59:29;;;;;;;;;1.75;1.50;;;;;22.62;48.75;99847.94;5086496;28;45380;-55
2022/10/23 17:01:54;;;;;;;;;1.00;1.00;;;;;22.63;49.06;99849.59;5095023;28;44731;-62
2022/10/23 17:04:20;;;;;;;;;3.00;1.25;;;;;22.62;49.03;99853.22;5095125;27;44841;-61
2022/10/23 17:06:45;;;;;;;;;5.25;2.75;;;;;22.63;49.19;99865.44;5090879;28;45347;-61
2022/10/23 17:09:11;;;;;;;;;1.25;1.25;;;;;22.61;49.04;99868.19;5082543;28;45364;-58
2022/10/23 17:11:38;;;;;;;;;1.00;1.00;;;;;22.60;49.02;99863.03;5084672;28;45307;-61
2022/10/23 17:14:16;;;;;;;;;3.00;1.00;;;;;22.60;49.21;99876.25;5079754;28;45907;-58
2022/10/23 17:16:47;;;;;;;;;1.00;1.00;;;;;22.57;49.29;99882.63;5077835;28;46495;-60
2022/10/23 17:19:15;;;;;;;;;2.00;2.00;;;;;22.60;49.09;99892.09;5077847;28;45702;-61
2022/10/23 17:21:41;;;;;;;;;2.00;2.00;;;;;22.58;48.92;99889.59;5077799;28;45348;-61
2022/10/23 17:24:08;;;;;;;;;2.75;2.00;;;;;22.58;48.92;99892.22;5077968;28;45425;-61
2022/10/23 17:26:34;;;;;;;;;1.50;1.50;;;;;22.56;48.52;99904.72;5078446;28;45714;-58
2022/10/23 17:29:01;;;;;;;;;4.25;2.00;;;;;22.58;49.08;99907.22;5077728;28;45770;-61
2022/10/23 17:31:31;;;;;;;;;2.00;1.00;;;;;22.56;49.00;99907.34;5077944;28;45413;-62
2022/10/23 17:34:01;;;;;;;;;1.25;1.25;;;;;22.54;48.95;99910.09;5078075;28;45299;-60
2022/10/23 17:36:27;;;;;;;;;1.00;1.00;;;;;22.61;49.26;99921.00;5078113;28;46455;-54
2022/10/23 17:38:53;;;;;;;;;0.75;0.75;;;;;22.61;48.96;99922.81;5082596;28;45187;-62
2022/10/23 17:41:20;;;;;;;;;1.00;1.00;;;;;22.65;49.18;99938.31;5081393;27;45715;-51
2022/10/23 17:43:46;;;;;;;;;0.00;0.00;;;;;22.67;48.87;99941.69;5083761;28;45535;-56
2022/10/23 17:46:13;;;;;;;;;2.00;1.00;;;;;22.67;49.12;99946.97;5092051;28;46850;-56
2022/10/23 17:48:42;;;;;;;;;2.75;2.75;;;;;22.68;48.86;99959.22;5078927;28;45447;-56
2022/10/23 17:51:12;;;;;;;;;2.25;2.00;;;;;22.69;48.89;99955.59;5080060;27;45271;-58
2022/10/23 17:53:39;;;;;;;;;3.50;3.25;;;;;22.70;49.07;99969.63;5085611;28;45272;-57
2022/10/23 17:56:07;;;;;;;;;2.25;2.00;;;;;22.68;49.18;99958.34;5088966;28;45455;-55
2022/10/23 17:58:34;;;;;;;;;4.25;4.00;;;;;22.68;49.36;99961.00;5077810;27;45700;-53
2022/10/23 18:01:12;;;;;;;;;6.25;3.00;;;;;22.68;49.37;99953.06;5077986;28;45297;-56
2022/10/23 18:03:39;;;;;;;;;4.00;2.00;;;;;22.67;49.20;99962.81;5077437;28;45390;-57
2022/10/23 18:06:07;;;;;;;;;4.00;3.00;;;;;22.67;49.55;99967.22;5080059;27;45422;-56
2022/10/23 18:08:34;;;;;;;;;4.00;4.00;;;;;22.67;49.11;99959.31;5081728;28;45181;-56
2022/10/23 18:11:02;;;;;;;;;3.75;3.75;;;;;22.66;49.60;99960.25;5077894;28;45406;-51
2022/10/23 18:13:27;;;;;;;;;8.00;4.00;;;;;22.66;49.76;99962.91;5077529;28;45459;-57
2022/10/23 18:15:53;;;;;;;;;4.00;4.00;;;;;22.66;49.58;99968.19;5077994;28;46102;-56
2022/10/23 18:18:18;;;;;;;;;4.25;4.25;;;;;22.66;50.09;99965.56;5078094;27;45516;-49
2022/10/23 18:20:44;;;;;;;;;4.25;4.25;;;;;22.65;49.79;99969.19;5077932;28;52274;-51
2022/10/23 18:23:09;;;;;;;;;5.75;4.25;;;;;22.64;50.18;99972.78;5077584;28;45299;-56
2022/10/23 18:25:34;;;;;;;;;6.50;5.25;;;;;22.62;49.99;99970.22;5077483;28;47381;-57
2022/10/23 18:28:00;;;;;;;;;5.00;4.00;;;;;22.65;50.57;99971.81;5078165;28;45465;-57
2022/10/23 18:30:25;;;;;;;;;3.00;3.00;;;;;22.65;50.46;99977.09;5078182;28;45384;-55
2022/10/23 18:32:51;;;;;;;;;6.25;5.00;;;;;22.66;50.37;99970.84;5079321;28;45576;-57
2022/10/23 18:35:16;;;;;;;;;5.25;5.00;;;;;22.65;50.72;99963.91;5083477;28;45584;-55
2022/10/23 18:37:42;;;;;;;;;2.00;2.00;;;;;22.65;51.19;99962.09;5080116;28;45353;-57
2022/10/23 18:40:07;;;;;;;;;6.25;5.25;;;;;22.66;51.44;99960.25;5078226;28;45305;-56
2022/10/23 18:42:33;;;;;;;;;6.75;4.75;;;;;22.65;51.73;99959.44;5078757;28;45390;-57
2022/10/23 18:44:59;;;;;;;;;4.00;4.00;;;;;22.66;52.22;99971.69;5078459;28;46203;-57
2022/10/23 18:47:24;;;;;;;;;7.75;6.50;;;;;22.67;52.15;99977.78;5078246;28;45395;-57
2022/10/23 18:49:50;;;;;;;;;6.25;5.25;;;;;22.67;52.07;99983.06;5079051;28;45461;-57
2022/10/23 18:52:15;;;;;;;;;7.00;6.00;;;;;22.65;51.99;99975.28;5079782;28;45549;-52
2022/10/23 18:54:40;;;;;;;;;5.50;4.50;;;;;22.66;52.32;99998.09;5083910;28;52692;-53
2022/10/23 18:57:06;;;;;;;;;5.50;4.00;;;;;22.66;52.24;99998.09;5090013;28;45164;-55
2022/10/23 18:59:31;;;;;;;;;5.50;5.50;;;;;22.66;52.32;99984.91;5088352;28;44692;-55
2022/10/23 19:01:56;;;;;;;;;9.50;5.50;;;;;22.67;52.21;99988.38;5084523;28;45543;-56
2022/10/23 19:04:22;;;;;;;;;3.25;3.25;;;;;22.65;52.10;100003.50;5083199;28;45947;-58
2022/10/23 19:06:48;;;;;;;;;5.25;5.25;;;;;22.67;51.97;100004.22;5075601;28;45353;-55
2022/10/23 19:09:14;;;;;;;;;6.00;5.00;;;;;22.66;52.05;99989.31;5077816;28;45433;-56
2022/10/23 19:11:41;;;;;;;;;5.25;4.25;;;;;22.65;52.49;99990.31;5077303;27;45333;-52
2022/10/23 19:14:07;;;;;;;;;4.75;4.75;;;;;22.66;52.26;99997.25;5089228;28;45350;-56
2022/10/23 19:16:38;;;;;;;;;4.00;4.00;;;;;22.65;52.38;99985.84;5084908;28;45250;-56
2022/10/23 19:19:11;;;;;;;;;6.00;5.00;;;;;22.66;52.31;99986.69;5077637;28;45425;-55
2022/10/23 19:21:39;;;;;;;;;6.50;5.00;;;;;22.65;52.18;99991.13;5076929;28;45401;-53
2022/10/23 19:24:09;;;;;;;;;4.75;4.00;;;;;22.64;52.38;99970.97;5077038;28;45446;-50
2022/10/23 19:26:38;;;;;;;;;4.75;4.00;;;;;22.65;52.36;99977.09;5077511;27;45734;-51
2022/10/23 19:29:07;;;;;;;;;4.75;4.00;;;;;22.65;52.35;99974.47;5082414;28;45469;-51
2022/10/23 19:31:32;;;;;;;;;4.00;3.00;;;;;22.65;52.24;99975.28;5082311;28;45495;-55
2022/10/23 19:33:58;;;;;;;;;5.00;4.00;;;;;22.69;52.17;99975.88;5077516;28;45397;-58
2022/10/23 19:36:23;;;;;;;;;3.25;3.25;;;;;22.72;52.30;99982.72;5077474;28;45844;-57
2022/10/23 19:38:48;;;;;;;;;3.75;3.75;;;;;22.74;52.16;99980.81;5085884;28;45534;-59
2022/10/23 19:41:15;;;;;;;;;6.50;4.00;;;;;22.75;52.30;99972.78;5085366;28;54546;-52
2022/10/23 19:43:41;;;;;;;;;5.00;4.25;;;;;22.77;52.05;99972.66;5073108;28;45398;-56
2022/10/23 19:46:06;;;;;;;;;6.25;4.00;;;;;22.79;51.77;99966.28;5073344;28;44748;-54
2022/10/23 19:48:32;;;;;;;;;4.00;4.00;;;;;22.82;51.68;99966.03;5074763;28;45177;-56
2022/10/23 19:50:57;;;;;;;;;3.75;3.75;;;;;22.83;51.93;99965.09;5071160;28;45732;-58
2022/10/23 19:53:22;;;;;;;;;6.50;4.00;;;;;22.85;51.55;99965.81;5065379;28;46002;-52
2022/10/23 19:55:48;;;;;;;;;6.00;4.25;;;;;22.87;51.68;99960.38;5061137;28;45213;-52
2022/10/23 19:58:13;;;;;;;;;4.75;2.00;;;;;22.87;51.71;99960.38;5057270;28;45343;-56
2022/10/23 20:00:39;;;;;;;;;4.00;4.00;;;;;22.90;51.53;99957.50;5061630;28;45589;-52
2022/10/23 20:03:04;;;;;;;;;4.00;3.25;;;;;22.92;51.59;99954.75;5056353;28;46886;-49
2022/10/23 20:05:30;;;;;;;;;3.00;2.50;;;;;22.92;51.18;99960.88;5056415;28;45275;-56
2022/10/23 20:07:55;;;;;;;;;3.00;3.00;;;;;22.95;51.13;99959.78;5056630;28;45341;-58
2022/10/23 20:10:21;;;;;;;;;4.50;4.50;;;;;22.97;51.56;99963.97;5056671;28;45414;-59
2022/10/23 20:12:46;;;;;;;;;6.75;3.00;;;;;22.98;51.16;99959.56;5056374;28;46410;-56
2022/10/23 20:15:11;;;;;;;;;3.50;3.00;;;;;22.99;51.21;99963.84;5056505;28;45595;-58
2022/10/23 20:17:37;;;;;;;;;2.50;2.25;;;;;23.00;51.14;99963.75;5067411;28;45272;-57
2022/10/23 20:20:03;;;;;;;;;5.00;4.75;;;;;22.99;50.90;99961.19;5076844;28;45331;-60
2022/10/23 20:22:29;;;;;;;;;3.00;3.00;;;;;22.97;50.90;99963.97;5064145;28;45696;-58
2022/10/23 20:24:54;;;;;;;;;3.00;3.00;;;;;22.96;50.74;99969.41;5059182;28;45334;-57
2022/10/23 20:27:19;;;;;;;;;3.00;2.50;;;;;22.95;50.70;99965.06;5062649;28;45213;-56
2022/10/23 20:29:45;;;;;;;;;3.50;3.00;;;;;22.92;50.83;99968.81;5062861;28;45555;-58
2022/10/23 20:32:11;;;;;;;;;3.50;3.00;;;;;22.91;51.06;99974.19;5060686;28;46285;-60
2022/10/23 20:34:38;;;;;;;;;3.75;2.00;;;;;22.89;50.74;99990.19;5075810;28;45397;-59
2022/10/23 20:37:04;;;;;;;;;3.50;3.00;;;;;22.87;51.08;99988.63;5059974;28;45450;-52
2022/10/23 20:39:32;;;;;;;;;3.25;3.00;;;;;22.84;50.59;99993.19;5059312;28;45332;-59
2022/10/23 20:41:59;;;;;;;;;3.00;2.50;;;;;22.84;50.83;100001.09;5058093;28;46489;-58
2022/10/23 20:44:24;;;;;;;;;3.00;3.00;;;;;22.83;50.55;99999.44;5058510;28;45409;-59
2022/10/23 20:46:50;;;;;;;;;3.25;3.25;;;;;22.81;50.73;100006.63;5058261;28;45242;-58
2022/10/23 20:49:16;;;;;;;;;3.00;3.00;;;;;22.80;50.93;100004.94;5058501;28;45616;-54
2022/10/23 20:51:42;;;;;;;;;4.75;3.25;;;;;22.79;50.63;100002.44;5058188;28;46395;-59
2022/10/23 20:54:07;;;;;;;;;3.25;3.25;;;;;22.78;50.89;100008.66;5060624;28;45352;-59
2022/10/23 20:56:36;;;;;;;;;4.00;3.00;;;;;22.77;50.69;100018.38;5064691;28;45378;-60
2022/10/23 20:59:05;;;;;;;;;3.00;3.00;;;;;22.76;51.16;100002.66;5060794;28;45302;-58
2022/10/23 21:01:31;;;;;;;;;2.00;2.00;;;;;22.75;51.09;100017.69;5058959;28;45483;-58
2022/10/23 21:03:59;;;;;;;;;5.00;3.00;;;;;22.74;50.73;100010.72;5059674;28;45273;-60
2022/10/23 21:06:27;;;;;;;;;2.25;2.25;;;;;22.73;50.92;100014.31;5063050;28;45337;-58
2022/10/23 21:08:57;;;;;;;;;2.00;2.00;;;;;22.73;50.84;100016.97;5062788;28;45328;-57
2022/10/23 21:11:23;;;;;;;;;3.00;3.00;;;;;22.72;50.49;100012.63;5062401;28;46253;-56
2022/10/23 21:13:50;;;;;;;;;3.00;2.00;;;;;22.71;50.55;100010.94;5061024;28;45761;-52
2022/10/23 21:16:24;;;;;;;;;3.00;1.25;;;;;22.71;50.66;100016.22;5063645;28;45283;-57
2022/10/23 21:18:50;;;;;;;;;3.25;3.00;;;;;22.70;50.51;100003.97;5067651;28;44781;-57
2022/10/23 21:21:18;;;;;;;;;2.00;2.00;;;;;22.70;50.72;100010.13;5070146;28;45474;-56
2022/10/23 21:23:45;;;;;;;;;3.50;2.00;;;;;22.70;50.62;100014.53;5073974;28;45639;-54
2022/10/23 21:26:10;;;;;;;;;2.00;2.00;;;;;22.68;50.84;100000.63;5069533;28;45306;-54
2022/10/23 21:28:36;;;;;;;;;3.50;3.00;;;;;22.69;50.44;100004.94;5057986;28;45348;-56
2022/10/23 21:31:07;;;;;;;;;4.75;3.75;;;;;22.67;50.32;100004.22;5058203;28;46384;-56
2022/10/23 21:33:35;;;;;;;;;3.00;3.00;;;;;22.67;50.77;100005.06;5058986;28;45733;-57
2022/10/23 21:36:01;;;;;;;;;2.75;2.75;;;;;22.67;50.70;100005.06;5058956;28;45319;-58